Time;durP1;ratioP1;P1;durP2;ratioP2;P2;SDS_P1;SDS_P2;PMS_P1;PMS_P2;Temp;Humidity;BMP_temperature;BMP_pressure;BME280_temperature;BME280_humidity;BME280_pressure;Samples;Min_cycle;Max_cycle;Signal;HPM_P1;HPM_P2
2022/05/16 00:02:06;;;;;;;6.28;2.70;;;;;;;;;;5080637;28;20229;-18
2022/05/16 00:04:33;;;;;;;6.45;3.30;;;;;;;;;;5079354;28;20724;-19
2022/05/16 00:07:00;;;;;;;8.80;2.90;;;;;;;;;;5080464;28;20727;-19
2022/05/16 00:09:28;;;;;;;4.78;2.70;;;;;;;;;;5083690;28;20244;-19
2022/05/16 00:11:56;;;;;;;8.15;3.10;;;;;;;;;;5080282;28;20626;-19
2022/05/16 00:14:24;;;;;;;9.20;3.00;;;;;;;;;;5079887;28;20231;-19
2022/05/16 00:16:51;;;;;;;6.68;2.95;;;;;;;;;;5084174;28;20241;-19
2022/05/16 00:19:19;;;;;;;6.95;2.90;;;;;;;;;;5082026;28;20230;-19
2022/05/16 00:21:46;;;;;;;7.10;3.22;;;;;;;;;;5082174;28;20887;-20
2022/05/16 00:24:13;;;;;;;6.45;2.67;;;;;;;;;;5080725;28;20252;-19
2022/05/16 00:26:41;;;;;;;6.55;2.47;;;;;;;;;;5078950;28;20782;-19
2022/05/16 00:29:09;;;;;;;7.72;2.88;;;;;;;;;;5083252;28;20243;-18
2022/05/16 00:31:37;;;;;;;5.15;2.70;;;;;;;;;;5084120;28;20252;-19
2022/05/16 00:34:04;;;;;;;7.25;3.03;;;;;;;;;;5079705;28;20233;-19
2022/05/16 00:36:31;;;;;;;4.18;2.40;;;;;;;;;;5074585;28;20226;-19
2022/05/16 00:38:59;;;;;;;8.35;3.45;;;;;;;;;;5083174;28;20237;-19
2022/05/16 00:41:26;;;;;;;7.53;2.92;;;;;;;;;;5080602;28;20226;-19
2022/05/16 00:43:55;;;;;;;8.98;3.05;;;;;;;;;;5082206;28;20704;-19
2022/05/16 00:46:24;;;;;;;5.80;3.00;;;;;;;;;;5083112;28;20329;-19
2022/05/16 00:48:52;;;;;;;6.25;3.25;;;;;;;;;;5077934;28;20246;-19
2022/05/16 00:51:20;;;;;;;5.10;2.50;;;;;;;;;;5081190;28;20225;-19
2022/05/16 00:53:47;;;;;;;5.20;2.58;;;;;;;;;;5081561;28;20241;-19
2022/05/16 00:56:15;;;;;;;6.63;2.67;;;;;;;;;;5081928;28;20618;-19
2022/05/16 00:58:42;;;;;;;7.43;3.15;;;;;;;;;;5080107;28;20237;-20
2022/05/16 01:04:47;;;;;;;8.23;2.60;;;;;;;;;;5081894;28;20236;-19
2022/05/16 01:06:43;;;;;;;6.85;2.90;;;;;;;;;;5078067;28;20237;-19
2022/05/16 01:09:10;;;;;;;5.40;2.33;;;;;;;;;;5076541;28;20710;-19
2022/05/16 01:11:37;;;;;;;5.53;2.58;;;;;;;;;;5078965;28;20722;-19
2022/05/16 01:14:05;;;;;;;5.93;2.83;;;;;;;;;;5077144;28;20234;-18
2022/05/16 01:16:32;;;;;;;7.82;3.10;;;;;;;;;;5078027;28;20229;-18
2022/05/16 01:19:01;;;;;;;6.57;2.80;;;;;;;;;;5081757;28;20237;-18
2022/05/16 01:21:30;;;;;;;6.93;2.60;;;;;;;;;;5082148;28;20228;-19
2022/05/16 01:23:59;;;;;;;7.25;3.20;;;;;;;;;;5079215;28;20969;-19
2022/05/16 01:26:27;;;;;;;7.78;2.95;;;;;;;;;;5081821;28;20247;-19
2022/05/16 01:28:54;;;;;;;6.43;2.80;;;;;;;;;;5079938;28;20240;-18
2022/05/16 01:31:22;;;;;;;6.25;2.83;;;;;;;;;;5079018;28;20221;-19
2022/05/16 01:33:49;;;;;;;6.45;2.75;;;;;;;;;;5081001;28;20241;-19
2022/05/16 01:36:17;;;;;;;5.25;2.63;;;;;;;;;;5082662;28;20228;-19
2022/05/16 01:38:44;;;;;;;5.05;2.40;;;;;;;;;;5081768;28;20225;-19
2022/05/16 01:41:13;;;;;;;5.50;2.45;;;;;;;;;;5078793;28;21005;-19
2022/05/16 01:43:41;;;;;;;5.53;2.67;;;;;;;;;;5079602;28;20222;-19
2022/05/16 01:46:09;;;;;;;5.88;3.00;;;;;;;;;;5082935;28;20260;-19
2022/05/16 01:48:36;;;;;;;7.25;2.90;;;;;;;;;;5085990;28;20265;-19
2022/05/16 01:51:04;;;;;;;5.85;2.55;;;;;;;;;;5082110;28;20256;-19
2022/05/16 01:53:32;;;;;;;7.65;3.10;;;;;;;;;;5077748;28;20235;-19
2022/05/16 01:55:59;;;;;;;5.07;2.80;;;;;;;;;;5081593;28;20232;-19
2022/05/16 01:58:28;;;;;;;4.15;2.55;;;;;;;;;;5083104;28;20232;-19
2022/05/16 02:00:55;;;;;;;7.72;3.30;;;;;;;;;;5086415;28;20229;-19
2022/05/16 02:03:23;;;;;;;6.60;2.70;;;;;;;;;;5081836;28;20252;-19
2022/05/16 02:05:50;;;;;;;9.50;3.20;;;;;;;;;;5084329;28;20236;-19
2022/05/16 02:08:17;;;;;;;7.20;2.63;;;;;;;;;;5084445;28;20220;-19
2022/05/16 02:10:45;;;;;;;5.80;2.33;;;;;;;;;;5083204;28;20706;-19
2022/05/16 02:13:12;;;;;;;5.43;2.40;;;;;;;;;;5085907;28;20233;-19
2022/05/16 02:15:41;;;;;;;6.57;2.75;;;;;;;;;;5079839;28;20231;-19
2022/05/16 02:18:09;;;;;;;5.50;2.60;;;;;;;;;;5082555;28;20688;-18
2022/05/16 02:20:36;;;;;;;4.05;2.50;;;;;;;;;;5085780;28;20835;-19
2022/05/16 02:25:49;;;;;;;9.35;3.35;;;;;;;;;;5119953;27;20259;-14
2022/05/16 02:28:17;;;;;;;6.00;2.60;;;;;;;;;;5125596;27;20231;-14
2022/05/16 02:30:51;;;;;;;5.60;2.83;;;;;;;;;;5123076;27;20322;-14
2022/05/16 02:33:19;;;;;;;6.85;2.75;;;;;;;;;;5117417;27;20232;-14
2022/05/16 02:35:46;;;;;;;8.30;2.80;;;;;;;;;;5120401;27;20234;-14
2022/05/16 02:38:14;;;;;;;5.43;2.70;;;;;;;;;;5118952;27;20224;-14
2022/05/16 02:40:42;;;;;;;4.50;2.33;;;;;;;;;;5121285;27;20718;-14
2022/05/16 02:43:09;;;;;;;8.05;2.78;;;;;;;;;;5121983;27;20217;-14
2022/05/16 02:45:36;;;;;;;4.72;2.38;;;;;;;;;;5122679;27;20224;-14
2022/05/16 02:48:06;;;;;;;6.85;2.92;;;;;;;;;;5122154;27;20370;-14
2022/05/16 02:50:33;;;;;;;6.22;3.10;;;;;;;;;;5118396;27;20907;-14
2022/05/16 02:53:00;;;;;;;8.13;3.20;;;;;;;;;;5118555;27;20234;-14
2022/05/16 02:55:29;;;;;;;6.85;2.92;;;;;;;;;;5121380;27;20235;-14
2022/05/16 02:57:57;;;;;;;8.10;2.78;;;;;;;;;;5121808;27;20220;-14
2022/05/16 03:00:24;;;;;;;9.23;2.58;;;;;;;;;;5118425;27;20239;-14
2022/05/16 03:02:52;;;;;;;5.07;2.15;;;;;;;;;;5124760;27;20224;-14
2022/05/16 03:05:21;;;;;;;5.22;2.65;;;;;;;;;;5119453;27;20247;-14
2022/05/16 03:07:48;;;;;;;6.75;2.90;;;;;;;;;;5122464;27;20216;-14
2022/05/16 03:10:16;;;;;;;4.68;2.78;;;;;;;;;;5121779;27;20228;-14
2022/05/16 03:12:44;;;;;;;5.18;2.53;;;;;;;;;;5122245;27;20216;-14
2022/05/16 03:15:12;;;;;;;5.63;2.95;;;;;;;;;;5122529;27;20220;-14
2022/05/16 03:17:39;;;;;;;5.25;2.50;;;;;;;;;;5120862;27;20224;-14
2022/05/16 03:20:07;;;;;;;5.60;2.83;;;;;;;;;;5122113;27;20234;-14
2022/05/16 03:22:36;;;;;;;6.82;2.83;;;;;;;;;;5121774;27;20240;-14
2022/05/16 03:25:04;;;;;;;5.05;2.78;;;;;;;;;;5118316;27;20224;-14
2022/05/16 03:27:31;;;;;;;6.28;2.60;;;;;;;;;;5118276;27;20220;-14
2022/05/16 03:29:58;;;;;;;5.63;2.65;;;;;;;;;;5124447;27;20602;-16
2022/05/16 03:32:26;;;;;;;6.82;2.35;;;;;;;;;;5120720;27;20232;-16
2022/05/16 03:34:54;;;;;;;4.75;2.60;;;;;;;;;;5124189;27;20236;-16
2022/05/16 03:37:21;;;;;;;6.28;2.72;;;;;;;;;;5123155;27;20249;-16
2022/05/16 03:42:40;;;;;;;7.50;2.50;;;;;;;;;;5110865;27;20228;-16
2022/05/16 03:45:08;;;;;;;5.35;2.92;;;;;;;;;;5121906;27;20217;-16
2022/05/16 03:47:36;;;;;;;5.10;2.80;;;;;;;;;;5125088;27;20231;-16
2022/05/16 03:50:03;;;;;;;6.22;3.15;;;;;;;;;;5118219;27;20228;-16
2022/05/16 03:52:31;;;;;;;7.03;3.15;;;;;;;;;;5125041;27;21116;-16
2022/05/16 03:54:59;;;;;;;8.13;2.88;;;;;;;;;;5119503;27;20230;-16
2022/05/16 03:57:26;;;;;;;5.53;2.75;;;;;;;;;;5122375;27;20213;-16
2022/05/16 03:59:54;;;;;;;6.07;2.83;;;;;;;;;;5124021;27;20236;-16
2022/05/16 04:02:21;;;;;;;4.20;2.50;;;;;;;;;;5124782;27;20238;-14
2022/05/16 04:04:48;;;;;;;6.63;3.00;;;;;;;;;;5120289;27;20228;-16
2022/05/16 04:07:16;;;;;;;7.47;3.33;;;;;;;;;;5123425;27;20236;-16
2022/05/16 04:09:43;;;;;;;6.80;2.58;;;;;;;;;;5121687;27;20231;-14
2022/05/16 04:12:12;;;;;;;6.18;2.92;;;;;;;;;;5124172;27;20238;-14
2022/05/16 04:14:39;;;;;;;6.53;2.55;;;;;;;;;;5121850;27;20979;-14
2022/05/16 04:17:06;;;;;;;5.43;2.58;;;;;;;;;;5123874;27;20220;-14
2022/05/16 04:19:34;;;;;;;5.45;2.47;;;;;;;;;;5124300;27;20227;-16
2022/05/16 04:22:01;;;;;;;5.63;2.63;;;;;;;;;;5123646;27;20265;-15
2022/05/16 04:24:28;;;;;;;7.05;3.33;;;;;;;;;;5124790;27;20223;-16
2022/05/16 04:26:56;;;;;;;4.25;2.60;;;;;;;;;;5119546;27;20232;-16
2022/05/16 04:29:25;;;;;;;4.45;2.40;;;;;;;;;;5122056;27;20215;-16
2022/05/16 04:31:52;;;;;;;5.28;2.53;;;;;;;;;;5124685;27;20262;-16
2022/05/16 04:34:20;;;;;;;5.20;2.53;;;;;;;;;;5120872;27;20269;-16
2022/05/16 04:36:47;;;;;;;4.60;2.80;;;;;;;;;;5122286;27;20228;-16
2022/05/16 04:39:14;;;;;;;5.18;2.85;;;;;;;;;;5119393;27;20255;-16
2022/05/16 04:44:28;;;;;;;6.45;2.75;;;;;;;;;;5123244;27;20310;-16
2022/05/16 04:46:55;;;;;;;6.82;2.95;;;;;;;;;;5121201;27;20230;-16
2022/05/16 04:49:23;;;;;;;4.95;2.80;;;;;;;;;;5120085;27;20254;-16
2022/05/16 04:51:50;;;;;;;4.20;2.60;;;;;;;;;;5122658;27;20234;-16
2022/05/16 04:54:17;;;;;;;6.72;2.88;;;;;;;;;;5122763;27;20321;-16
2022/05/16 04:56:46;;;;;;;4.35;2.60;;;;;;;;;;5121712;27;20326;-16
2022/05/16 04:59:15;;;;;;;6.80;3.10;;;;;;;;;;5122356;27;20237;-16
2022/05/16 05:01:44;;;;;;;4.85;2.55;;;;;;;;;;5121411;27;20709;-16
2022/05/16 05:04:11;;;;;;;5.80;2.65;;;;;;;;;;5123340;27;20228;-14
2022/05/16 05:06:39;;;;;;;7.70;3.00;;;;;;;;;;5120924;27;20236;-14
2022/05/16 05:09:06;;;;;;;9.27;3.08;;;;;;;;;;5123242;27;20706;-14
2022/05/16 05:14:34;;;;;;;6.30;2.58;;;;;;;;;;5120570;27;20725;-16
2022/05/16 05:17:03;;;;;;;5.57;2.63;;;;;;;;;;5124259;27;20307;-14
2022/05/16 05:19:31;;;;;;;6.75;2.80;;;;;;;;;;5116018;27;20239;-16
2022/05/16 05:21:58;;;;;;;5.32;2.70;;;;;;;;;;5120970;27;20235;-16
2022/05/16 05:24:25;;;;;;;5.03;2.70;;;;;;;;;;5120666;27;20234;-14
2022/05/16 05:26:53;;;;;;;6.22;2.85;;;;;;;;;;5122563;27;20232;-16
2022/05/16 05:29:22;;;;;;;4.75;2.67;;;;;;;;;;5121512;27;20232;-16
2022/05/16 05:31:50;;;;;;;6.95;3.10;;;;;;;;;;5123916;27;20238;-16
2022/05/16 05:34:19;;;;;;;8.98;3.38;;;;;;;;;;5118441;27;21186;-15
2022/05/16 05:36:46;;;;;;;8.20;2.78;;;;;;;;;;5121237;27;20220;-16
2022/05/16 05:39:16;;;;;;;7.32;2.80;;;;;;;;;;5122699;27;20223;-15
2022/05/16 05:41:43;;;;;;;5.68;2.58;;;;;;;;;;5121193;27;20222;-16
2022/05/16 05:44:11;;;;;;;4.65;2.42;;;;;;;;;;5122049;27;20228;-16
2022/05/16 05:46:38;;;;;;;5.45;3.00;;;;;;;;;;5119175;27;20236;-16
2022/05/16 05:49:06;;;;;;;10.40;3.22;;;;;;;;;;5119441;27;20215;-16
2022/05/16 05:51:35;;;;;;;5.50;2.88;;;;;;;;;;5123248;27;20274;-16
2022/05/16 05:54:02;;;;;;;11.98;3.40;;;;;;;;;;5123106;27;20235;-15
2022/05/16 05:56:29;;;;;;;5.47;2.88;;;;;;;;;;5119581;27;20227;-16
2022/05/16 05:58:57;;;;;;;6.20;2.80;;;;;;;;;;5119204;27;20217;-16
2022/05/16 06:01:25;;;;;;;5.25;2.97;;;;;;;;;;5122204;27;20228;-16
2022/05/16 06:03:52;;;;;;;6.05;2.72;;;;;;;;;;5120501;27;20231;-16
2022/05/16 06:06:20;;;;;;;9.25;3.88;;;;;;;;;;5119027;27;20242;-16
2022/05/16 06:08:48;;;;;;;8.57;3.40;;;;;;;;;;5121196;27;20804;-14
2022/05/16 06:11:16;;;;;;;6.18;2.78;;;;;;;;;;5121907;27;20226;-14
2022/05/16 06:13:43;;;;;;;6.28;2.75;;;;;;;;;;5120484;27;20227;-16
2022/05/16 06:16:10;;;;;;;6.13;3.00;;;;;;;;;;5121865;27;20254;-16
2022/05/16 06:18:38;;;;;;;7.45;3.17;;;;;;;;;;5120307;27;20227;-16
2022/05/16 06:21:05;;;;;;;7.10;2.88;;;;;;;;;;5120028;27;20220;-16
2022/05/16 06:23:32;;;;;;;7.43;2.80;;;;;;;;;;5114707;27;20232;-16
2022/05/16 06:26:01;;;;;;;5.68;2.80;;;;;;;;;;5122843;27;20231;-16
2022/05/16 06:28:29;;;;;;;5.03;2.92;;;;;;;;;;5119119;27;20224;-15
2022/05/16 06:30:57;;;;;;;6.88;3.15;;;;;;;;;;5122255;27;20208;-14
2022/05/16 06:33:25;;;;;;;6.05;2.80;;;;;;;;;;5122810;27;20236;-14
2022/05/16 06:35:53;;;;;;;5.05;2.53;;;;;;;;;;5125479;27;20769;-14
2022/05/16 06:38:21;;;;;;;7.95;3.15;;;;;;;;;;5123517;27;20214;-16
2022/05/16 06:40:48;;;;;;;5.75;2.80;;;;;;;;;;5126991;27;20226;-14
2022/05/16 06:43:17;;;;;;;6.03;2.70;;;;;;;;;;5124207;27;20228;-14
2022/05/16 06:45:45;;;;;;;4.55;2.75;;;;;;;;;;5124748;27;20237;-14
2022/05/16 06:48:12;;;;;;;5.32;2.55;;;;;;;;;;5122692;27;20231;-14
2022/05/16 06:50:40;;;;;;;7.72;3.15;;;;;;;;;;5121121;27;20220;-16
2022/05/16 06:53:07;;;;;;;5.93;2.92;;;;;;;;;;5125938;27;20247;-16
2022/05/16 06:55:35;;;;;;;5.68;3.05;;;;;;;;;;5122397;27;20228;-16
2022/05/16 06:58:02;;;;;;;5.47;2.80;;;;;;;;;;5122498;27;20220;-16
2022/05/16 07:00:31;;;;;;;6.10;2.65;;;;;;;;;;5122024;27;20236;-16
2022/05/16 07:02:58;;;;;;;4.55;2.35;;;;;;;;;;5125546;27;20226;-16
2022/05/16 07:05:46;;;;;;;4.78;2.70;;;;;;;;;;5121475;27;20282;-16
2022/05/16 07:08:13;;;;;;;6.70;3.00;;;;;;;;;;5125767;27;20228;-16
2022/05/16 07:10:41;;;;;;;7.20;3.15;;;;;;;;;;5125023;27;20223;-16
2022/05/16 07:13:09;;;;;;;5.07;2.78;;;;;;;;;;5117131;27;20703;-16
2022/05/16 07:15:37;;;;;;;8.02;2.60;;;;;;;;;;5125741;27;20215;-16
2022/05/16 07:18:05;;;;;;;5.53;2.72;;;;;;;;;;5126580;27;20216;-17
2022/05/16 07:20:36;;;;;;;6.07;2.80;;;;;;;;;;5118730;27;20285;-16
2022/05/16 07:23:04;;;;;;;6.15;2.67;;;;;;;;;;5124580;27;20235;-16
2022/05/16 07:27:56;;;;;;;6.53;2.80;;;;;;;;;;5118092;27;20213;-16
2022/05/16 07:28:18;;;;;;;6.25;2.97;;;;;;;;;;5122397;27;20232;-15
2022/05/16 07:30:46;;;;;;;5.20;2.92;;;;;;;;;;5121108;27;20695;-16
2022/05/16 07:33:14;;;;;;;7.57;3.05;;;;;;;;;;5123773;27;20235;-16
2022/05/16 07:35:41;;;;;;;6.88;2.95;;;;;;;;;;5122824;27;20216;-16
2022/05/16 07:38:08;;;;;;;4.35;2.72;;;;;;;;;;5124716;27;20212;-16
2022/05/16 07:40:36;;;;;;;4.75;2.63;;;;;;;;;;5121730;27;20231;-16
2022/05/16 07:43:03;;;;;;;4.75;2.78;;;;;;;;;;5118107;27;20220;-16
2022/05/16 07:45:31;;;;;;;4.75;2.70;;;;;;;;;;5123559;27;20259;-16
2022/05/16 07:48:03;;;;;;;6.65;3.10;;;;;;;;;;5121665;27;20224;-16
2022/05/16 07:50:30;;;;;;;6.85;2.90;;;;;;;;;;5125430;27;20263;-16
2022/05/16 07:52:58;;;;;;;6.05;3.22;;;;;;;;;;5122171;27;20234;-16
2022/05/16 07:55:26;;;;;;;4.80;3.03;;;;;;;;;;5121117;27;20654;-16
2022/05/16 07:57:53;;;;;;;5.45;2.28;;;;;;;;;;5124005;27;20954;-16
2022/05/16 08:00:21;;;;;;;6.32;2.53;;;;;;;;;;5124742;27;20231;-16
2022/05/16 08:02:48;;;;;;;4.55;2.55;;;;;;;;;;5122615;27;20222;-16
2022/05/16 08:05:17;;;;;;;6.40;3.13;;;;;;;;;;5125610;27;20231;-16
2022/05/16 08:10:30;;;;;;;8.63;3.10;;;;;;;;;;5125058;27;20225;-16
2022/05/16 08:12:58;;;;;;;6.28;3.00;;;;;;;;;;5122217;27;20232;-16
2022/05/16 08:15:25;;;;;;;4.50;2.70;;;;;;;;;;5123935;27;20398;-16
2022/05/16 08:17:53;;;;;;;8.48;2.78;;;;;;;;;;5119926;27;20722;-16
2022/05/16 08:20:25;;;;;;;6.70;2.78;;;;;;;;;;5122422;27;20219;-16
2022/05/16 08:22:52;;;;;;;4.82;2.78;;;;;;;;;;5123028;27;20264;-16
2022/05/16 08:25:20;;;;;;;6.35;3.15;;;;;;;;;;5122490;27;20223;-16
2022/05/16 08:27:50;;;;;;;4.85;2.97;;;;;;;;;;5122341;27;20224;-16
2022/05/16 08:30:17;;;;;;;6.00;2.95;;;;;;;;;;5124150;27;20228;-16
2022/05/16 08:32:44;;;;;;;7.68;3.17;;;;;;;;;;5123705;27;20273;-16
2022/05/16 08:35:12;;;;;;;8.63;3.05;;;;;;;;;;5121844;27;20211;-16
2022/05/16 08:40:33;;;;;;;7.47;2.90;;;;;;;;;;5079997;27;20229;-17
2022/05/16 08:43:03;;;;;;;4.13;2.90;;;;;;;;;;5116776;27;20232;-16
2022/05/16 08:45:31;;;;;;;6.13;2.72;;;;;;;;;;5124353;27;20224;-16
2022/05/16 08:48:00;;;;;;;4.43;2.63;;;;;;;;;;5121288;27;20703;-16
2022/05/16 08:50:29;;;;;;;6.05;2.83;;;;;;;;;;5120280;27;20785;-16
2022/05/16 08:52:59;;;;;;;4.97;2.80;;;;;;;;;;5122917;27;20232;-16
2022/05/16 08:55:31;;;;;;;6.20;3.13;;;;;;;;;;5121109;27;20232;-16
2022/05/16 08:58:00;;;;;;;4.15;3.00;;;;;;;;;;5123662;27;20223;-16
2022/05/16 09:00:29;;;;;;;5.93;2.85;;;;;;;;;;5123793;27;20216;-16
2022/05/16 09:02:57;;;;;;;5.95;2.83;;;;;;;;;;5119091;27;20780;-16
2022/05/16 09:05:25;;;;;;;6.43;2.95;;;;;;;;;;5124068;27;20228;-16
2022/05/16 09:07:53;;;;;;;4.43;2.92;;;;;;;;;;5121546;27;20235;-16
2022/05/16 09:10:23;;;;;;;9.43;3.08;;;;;;;;;;5120180;27;20223;-16
2022/05/16 09:12:54;;;;;;;4.95;3.50;;;;;;;;;;5121420;27;20232;-16
2022/05/16 09:15:26;;;;;;;6.63;3.05;;;;;;;;;;5123527;27;20670;-16
2022/05/16 09:17:57;;;;;;;4.57;2.50;;;;;;;;;;5121079;27;20224;-16
2022/05/16 09:20:27;;;;;;;5.57;3.03;;;;;;;;;;5123138;27;20224;-16
2022/05/16 09:22:56;;;;;;;6.97;2.53;;;;;;;;;;5120570;27;20957;-16
2022/05/16 09:25:25;;;;;;;6.40;2.90;;;;;;;;;;5121313;27;20224;-16
2022/05/16 09:30:37;;;;;;;5.70;2.50;;;;;;;;;;5121032;27;20228;-16
2022/05/16 09:33:06;;;;;;;4.65;2.75;;;;;;;;;;5120221;27;20216;-16
2022/05/16 09:35:38;;;;;;;5.43;2.85;;;;;;;;;;5115594;27;20232;-16
2022/05/16 09:38:06;;;;;;;5.60;2.67;;;;;;;;;;5116634;27;20232;-16
2022/05/16 09:40:37;;;;;;;5.43;3.10;;;;;;;;;;5120608;27;20218;-16
2022/05/16 09:43:07;;;;;;;4.13;2.60;;;;;;;;;;5115711;27;20216;-16
2022/05/16 09:45:34;;;;;;;5.43;3.00;;;;;;;;;;5115343;27;20224;-16
2022/05/16 09:48:02;;;;;;;7.05;2.83;;;;;;;;;;5115649;27;20221;-16
2022/05/16 09:50:35;;;;;;;6.97;3.05;;;;;;;;;;5116402;27;20232;-16
2022/05/16 09:53:10;;;;;;;6.85;3.20;;;;;;;;;;5115936;27;20228;-16
2022/05/16 09:55:44;;;;;;;9.15;2.92;;;;;;;;;;5116687;27;20227;-16
2022/05/16 09:58:13;;;;;;;6.00;3.20;;;;;;;;;;5122778;27;20234;-16
2022/05/16 10:00:44;;;;;;;5.78;2.70;;;;;;;;;;5122696;27;20212;-16
2022/05/16 10:03:16;;;;;;;7.15;2.97;;;;;;;;;;5120945;27;20762;-16
2022/05/16 10:05:45;;;;;;;6.40;3.22;;;;;;;;;;5122154;27;20327;-16
2022/05/16 10:08:17;;;;;;;3.55;2.72;;;;;;;;;;5120915;27;20235;-16
2022/05/16 10:10:46;;;;;;;4.70;2.85;;;;;;;;;;5124635;27;20230;-16
2022/05/16 10:13:16;;;;;;;4.70;2.80;;;;;;;;;;5125866;27;20269;-16
2022/05/16 10:15:43;;;;;;;5.03;2.53;;;;;;;;;;5127607;27;20219;-16
2022/05/16 10:18:13;;;;;;;6.20;3.03;;;;;;;;;;5122309;27;20232;-16
2022/05/16 10:20:42;;;;;;;6.32;2.90;;;;;;;;;;5120624;27;20224;-16
2022/05/16 10:23:11;;;;;;;6.85;2.85;;;;;;;;;;5125855;27;20243;-16
2022/05/16 10:25:40;;;;;;;5.40;2.55;;;;;;;;;;5123905;27;20731;-16
2022/05/16 10:28:10;;;;;;;6.35;3.22;;;;;;;;;;5130809;27;21037;-16
2022/05/16 10:33:25;;;;;;;7.28;3.20;;;;;;;;;;5123451;27;20951;-16
2022/05/16 10:35:53;;;;;;;6.25;3.35;;;;;;;;;;5122077;27;20265;-16
2022/05/16 10:38:31;;;;;;;8.68;3.30;;;;;;;;;;5123478;27;20227;-16
2022/05/16 10:40:59;;;;;;;5.70;3.03;;;;;;;;;;5124967;27;20231;-16
2022/05/16 10:43:31;;;;;;;3.72;2.72;;;;;;;;;;5125621;27;20216;-16
2022/05/16 10:46:02;;;;;;;7.00;3.67;;;;;;;;;;5126997;27;20227;-16
2022/05/16 10:48:31;;;;;;;6.40;2.90;;;;;;;;;;5125873;27;20240;-16
2022/05/16 10:50:58;;;;;;;5.50;2.90;;;;;;;;;;5122760;27;20232;-16
2022/05/16 10:53:27;;;;;;;5.07;3.00;;;;;;;;;;5121672;27;20250;-16
2022/05/16 10:55:56;;;;;;;6.57;3.03;;;;;;;;;;5124979;27;20224;-16
2022/05/16 10:58:27;;;;;;;6.07;2.85;;;;;;;;;;5122359;27;20231;-16
2022/05/16 11:00:58;;;;;;;9.18;3.28;;;;;;;;;;5126162;27;20212;-16
2022/05/16 11:03:59;;;;;;;7.40;3.08;;;;;;;;;;5119327;27;21056;-16
2022/05/16 11:06:37;;;;;;;5.75;3.20;;;;;;;;;;5125359;27;20238;-16
2022/05/16 11:09:05;;;;;;;5.97;3.00;;;;;;;;;;5118927;27;20961;-17
2022/05/16 11:11:36;;;;;;;6.30;2.78;;;;;;;;;;5118483;27;20227;-16
2022/05/16 11:14:05;;;;;;;5.72;3.30;;;;;;;;;;5117122;27;20299;-16
2022/05/16 11:16:34;;;;;;;7.68;3.17;;;;;;;;;;5121701;27;20687;-16
2022/05/16 11:19:12;;;;;;;5.80;3.05;;;;;;;;;;5116307;27;20310;-16
2022/05/16 11:21:41;;;;;;;6.47;3.17;;;;;;;;;;5119267;27;20228;-17
2022/05/16 11:24:10;;;;;;;4.65;3.03;;;;;;;;;;5124057;27;20599;-16
2022/05/16 11:26:40;;;;;;;7.90;3.22;;;;;;;;;;5119316;27;20216;-16
2022/05/16 11:29:19;;;;;;;4.65;2.72;;;;;;;;;;5125154;27;20988;-16
2022/05/16 11:31:54;;;;;;;7.55;3.08;;;;;;;;;;5122090;27;20234;-16
2022/05/16 11:34:23;;;;;;;7.40;3.45;;;;;;;;;;5124151;27;20237;-16
2022/05/16 11:36:55;;;;;;;8.65;3.13;;;;;;;;;;5120332;27;20240;-16
2022/05/16 11:39:23;;;;;;;4.22;3.00;;;;;;;;;;5122909;27;20227;-16
2022/05/16 11:41:53;;;;;;;4.88;3.00;;;;;;;;;;5123984;27;20224;-16
2022/05/16 11:44:23;;;;;;;4.03;2.85;;;;;;;;;;5123069;27;20243;-16
2022/05/16 11:46:52;;;;;;;5.45;3.00;;;;;;;;;;5122866;27;20240;-16
2022/05/16 11:49:41;;;;;;;4.75;2.80;;;;;;;;;;5118371;27;20232;-16
2022/05/16 11:52:32;;;;;;;5.85;3.50;;;;;;;;;;5121840;27;20232;-16
2022/05/16 11:55:00;;;;;;;4.88;3.00;;;;;;;;;;5125070;27;20252;-16
2022/05/16 12:00:32;;;;;;;5.07;3.05;;;;;;;;;;5119412;27;20984;-16
2022/05/16 12:03:24;;;;;;;8.13;3.40;;;;;;;;;;5121498;27;20215;-16
2022/05/16 12:05:53;;;;;;;5.20;3.10;;;;;;;;;;5106746;27;20224;-16
2022/05/16 12:08:32;;;;;;;6.57;2.60;;;;;;;;;;5122236;27;20741;-16
2022/05/16 12:11:09;;;;;;;5.75;3.15;;;;;;;;;;5124645;27;20213;-16
2022/05/16 12:13:39;;;;;;;5.75;3.22;;;;;;;;;;5118124;27;21048;-16
2022/05/16 12:16:16;;;;;;;5.07;3.50;;;;;;;;;;5123387;27;20228;-16
2022/05/16 12:18:45;;;;;;;6.57;3.22;;;;;;;;;;5123591;27;20693;-16
2022/05/16 12:21:14;;;;;;;5.78;3.08;;;;;;;;;;5120578;27;20223;-16
2022/05/16 12:23:58;;;;;;;5.78;3.08;;;;;;;;;;5121054;27;20240;-16
2022/05/16 12:26:58;;;;;;;6.35;3.15;;;;;;;;;;5122064;27;20219;-16
2022/05/16 12:29:30;;;;;;;5.95;3.58;;;;;;;;;;5122984;27;20220;-16
2022/05/16 12:31:57;;;;;;;5.18;3.13;;;;;;;;;;5119537;27;20227;-16
2022/05/16 12:34:42;;;;;;;4.90;3.28;;;;;;;;;;5121454;27;20235;-16
2022/05/16 12:37:11;;;;;;;5.13;3.35;;;;;;;;;;5118932;27;20706;-16
2022/05/16 12:39:39;;;;;;;5.80;3.53;;;;;;;;;;5120933;27;20223;-16
2022/05/16 12:42:11;;;;;;;6.45;3.20;;;;;;;;;;5123089;27;20712;-16
2022/05/16 12:44:42;;;;;;;7.35;3.40;;;;;;;;;;5121844;27;20602;-16
2022/05/16 12:47:37;;;;;;;4.85;2.53;;;;;;;;;;5124947;27;20225;-16
2022/05/16 12:50:08;;;;;;;5.00;2.92;;;;;;;;;;5116946;27;20786;-16
2022/05/16 12:52:50;;;;;;;6.18;3.38;;;;;;;;;;5119938;27;20227;-16
2022/05/16 12:55:28;;;;;;;6.00;3.75;;;;;;;;;;5120056;27;20239;-16
2022/05/16 12:57:59;;;;;;;6.00;3.50;;;;;;;;;;5121190;27;20265;-16
2022/05/16 13:00:28;;;;;;;4.68;3.40;;;;;;;;;;5123013;27;20215;-16
2022/05/16 13:03:03;;;;;;;8.15;3.70;;;;;;;;;;5120288;27;20309;-16
2022/05/16 13:05:33;;;;;;;8.05;3.65;;;;;;;;;;5120991;27;20219;-16
2022/05/16 13:08:07;;;;;;;7.22;3.78;;;;;;;;;;5123347;27;20324;-16
2022/05/16 13:10:35;;;;;;;6.72;3.80;;;;;;;;;;5116763;27;20718;-16
2022/05/16 13:13:05;;;;;;;6.90;4.22;;;;;;;;;;5116561;27;20224;-16
2022/05/16 13:15:34;;;;;;;6.50;3.53;;;;;;;;;;5119741;27;20246;-16
2022/05/16 13:18:01;;;;;;;5.53;3.80;;;;;;;;;;5116867;27;20223;-16
2022/05/16 13:20:31;;;;;;;5.85;3.40;;;;;;;;;;5120387;27;20624;-16
2022/05/16 13:22:58;;;;;;;6.18;3.50;;;;;;;;;;5122818;27;20246;-16
2022/05/16 13:25:27;;;;;;;7.50;3.20;;;;;;;;;;5118290;27;20233;-16
2022/05/16 13:30:39;;;;;;;8.55;3.58;;;;;;;;;;5120651;27;21011;-16
2022/05/16 13:33:20;;;;;;;5.78;3.30;;;;;;;;;;5119370;27;20213;-16
2022/05/16 13:35:47;;;;;;;6.03;3.42;;;;;;;;;;5119342;27;20235;-16
2022/05/16 13:38:15;;;;;;;6.10;3.53;;;;;;;;;;5122387;27;20231;-16
2022/05/16 13:40:44;;;;;;;5.88;3.00;;;;;;;;;;5122616;27;20232;-16
2022/05/16 13:43:11;;;;;;;6.00;3.22;;;;;;;;;;5119772;27;21053;-16
2022/05/16 13:45:39;;;;;;;7.80;3.40;;;;;;;;;;5122810;27;20238;-16
2022/05/16 13:48:08;;;;;;;7.78;3.40;;;;;;;;;;5119531;27;20235;-16
2022/05/16 13:50:35;;;;;;;8.88;3.83;;;;;;;;;;5119904;27;20215;-16
2022/05/16 13:53:03;;;;;;;5.70;3.85;;;;;;;;;;5116083;27;20706;-16
2022/05/16 13:55:30;;;;;;;8.25;4.35;;;;;;;;;;5123122;27;20234;-16
2022/05/16 13:58:03;;;;;;;6.05;3.65;;;;;;;;;;5119452;27;20227;-16
2022/05/16 14:00:36;;;;;;;7.53;4.03;;;;;;;;;;5122668;27;20254;-16
2022/05/16 14:03:04;;;;;;;6.00;3.75;;;;;;;;;;5115667;27;20224;-16
2022/05/16 14:05:32;;;;;;;9.25;4.10;;;;;;;;;;5115611;27;20702;-16
2022/05/16 14:08:03;;;;;;;7.93;4.00;;;;;;;;;;5115672;27;20224;-16
2022/05/16 14:10:31;;;;;;;6.05;3.95;;;;;;;;;;5119159;27;20267;-16
2022/05/16 14:12:59;;;;;;;8.35;4.10;;;;;;;;;;5122758;27;20234;-16
2022/05/16 14:15:30;;;;;;;6.10;3.70;;;;;;;;;;5122464;27;20239;-16
2022/05/16 14:18:01;;;;;;;5.15;3.75;;;;;;;;;;5120067;27;20217;-16
2022/05/16 14:20:28;;;;;;;5.53;3.22;;;;;;;;;;5118746;27;20243;-16
2022/05/16 14:22:57;;;;;;;7.05;3.70;;;;;;;;;;5120478;27;20244;-16
2022/05/16 14:25:28;;;;;;;6.72;3.58;;;;;;;;;;5120154;27;20220;-16
2022/05/16 14:27:59;;;;;;;7.55;4.00;;;;;;;;;;5122108;27;20250;-16
2022/05/16 14:30:27;;;;;;;4.78;3.42;;;;;;;;;;5122730;27;20231;-16
2022/05/16 14:33:01;;;;;;;7.85;4.10;;;;;;;;;;5118272;27;20966;-16
2022/05/16 14:35:29;;;;;;;7.18;4.57;;;;;;;;;;5119449;27;20240;-16
2022/05/16 14:37:56;;;;;;;7.18;4.38;;;;;;;;;;5122149;27;20232;-16
2022/05/16 14:40:25;;;;;;;10.52;6.38;;;;;;;;;;5120200;27;20258;-16
2022/05/16 14:43:02;;;;;;;8.98;5.40;;;;;;;;;;5120806;27;20236;-16
2022/05/16 14:48:12;;;;;;;7.38;4.85;;;;;;;;;;5115932;27;20224;-16
2022/05/16 14:50:39;;;;;;;8.70;4.57;;;;;;;;;;5122261;27;20694;-17
2022/05/16 14:53:08;;;;;;;9.30;4.68;;;;;;;;;;5119240;27;20228;-16
2022/05/16 14:55:36;;;;;;;6.75;4.57;;;;;;;;;;5119117;27;20278;-16
2022/05/16 14:58:04;;;;;;;7.97;4.72;;;;;;;;;;5118750;27;20232;-16
2022/05/16 15:06:08;;;;;;;8.57;4.75;;;;;;;;;;5118602;27;20262;-16
2022/05/16 15:08:36;;;;;;;7.30;4.68;;;;;;;;;;5122107;27;20228;-16
2022/05/16 15:11:04;;;;;;;5.68;4.40;;;;;;;;;;5125619;27;20235;-16
2022/05/16 15:13:32;;;;;;;7.90;4.82;;;;;;;;;;5125418;27;20215;-16
2022/05/16 15:15:59;;;;;;;5.97;4.22;;;;;;;;;;5121082;27;20239;-16
2022/05/16 15:18:28;;;;;;;8.13;4.57;;;;;;;;;;5121484;27;20693;-16
2022/05/16 15:20:57;;;;;;;7.32;4.47;;;;;;;;;;5122863;27;20215;-16
2022/05/16 15:23:25;;;;;;;10.18;4.20;;;;;;;;;;5124452;27;20738;-16
2022/05/16 15:25:53;;;;;;;7.57;4.10;;;;;;;;;;5123409;27;20575;-16
2022/05/16 15:28:20;;;;;;;10.82;4.90;;;;;;;;;;5121587;27;20706;-16
2022/05/16 15:30:48;;;;;;;9.68;4.50;;;;;;;;;;5122363;27;20219;-16
2022/05/16 15:33:15;;;;;;;9.43;4.32;;;;;;;;;;5123289;27;20311;-16
2022/05/16 15:35:44;;;;;;;9.75;4.35;;;;;;;;;;5124514;27;20227;-16